createdAt,value
2023-02-22T00:00:10.109Z,10.20
2023-02-22T00:06:36.908Z,10.10
2023-02-22T00:09:39.451Z,9.71
2023-02-22T00:12:42.101Z,9.79
2023-02-22T00:15:45.774Z,9.77
2023-02-22T00:18:47.275Z,9.92
2023-02-22T00:21:53.730Z,10.04
2023-02-22T00:24:56.864Z,9.97
2023-02-22T00:27:59.461Z,9.88
2023-02-22T00:31:02.666Z,9.65
2023-02-22T00:34:03.961Z,9.68
2023-02-22T00:37:06.507Z,9.87
2023-02-22T00:40:10.181Z,9.83
2023-02-22T00:43:12.849Z,10.10
2023-02-22T00:46:15.112Z,10.01
2023-02-22T00:49:18.003Z,10.29
2023-02-22T00:52:20.603Z,10.34
2023-02-22T00:55:24.615Z,10.17
2023-02-22T00:58:27.269Z,9.86
2023-02-22T01:01:29.962Z,10.04
2023-02-22T01:04:32.670Z,10.09
2023-02-22T01:07:35.661Z,10.00
2023-02-22T01:10:38.496Z,9.89
2023-02-22T01:13:41.033Z,9.72
2023-02-22T01:16:43.578Z,9.61
2023-02-22T01:19:46.396Z,9.52
2023-02-22T01:22:50.618Z,9.34
2023-02-22T01:25:51.871Z,9.23
2023-02-22T01:28:54.533Z,9.11
2023-02-22T01:31:58.199Z,8.97
2023-02-22T01:34:59.509Z,9.03
2023-02-22T01:38:02.339Z,9.21
2023-02-22T01:41:04.859Z,9.42
2023-02-22T01:47:48.335Z,9.84
2023-02-22T01:50:53.721Z,9.87
2023-02-22T01:54:00.246Z,9.81
2023-02-22T01:57:07.597Z,9.73
2023-02-22T02:00:12.123Z,9.59
2023-02-22T02:03:20.076Z,9.58
2023-02-22T02:06:21.478Z,9.51
2023-02-22T02:09:30.730Z,9.48
2023-02-22T02:12:36.409Z,9.63
2023-02-22T02:15:38.003Z,9.57
2023-02-22T02:18:41.674Z,9.61
2023-02-22T02:22:21.699Z,9.68
2023-02-22T02:25:52.205Z,9.61
2023-02-22T02:29:10.714Z,9.24
2023-02-22T02:32:31.770Z,9.16
2023-02-22T02:35:48.542Z,9.31
2023-02-22T02:38:57.509Z,9.24
2023-02-22T02:45:30.280Z,9.17
2023-02-22T02:48:34.433Z,9.11
2023-02-22T02:51:43.017Z,8.86
2023-02-22T02:54:46.509Z,9.11
2023-02-22T03:01:08.759Z,9.21
2023-02-22T03:04:23.980Z,8.93
2023-02-22T03:07:46.376Z,8.83
2023-02-22T03:10:57.938Z,8.64
2023-02-22T03:14:09.527Z,8.36
2023-02-22T03:17:18.704Z,8.51
2023-02-22T03:23:58.777Z,8.37
2023-02-22T03:27:08.460Z,8.34
2023-02-22T03:33:41.102Z,8.57
2023-02-22T03:36:48.419Z,8.80
2023-02-22T03:39:53.525Z,8.82
2023-02-22T03:43:00.177Z,8.88
2023-02-22T03:46:04.592Z,9.10
2023-02-22T03:49:11.150Z,8.84
2023-02-22T03:52:14.558Z,8.68
2023-02-22T03:55:17.254Z,8.67
2023-02-22T03:58:22.899Z,8.75
2023-02-22T04:01:25.605Z,8.71
2023-02-22T04:04:27.007Z,8.51
2023-02-22T04:07:30.265Z,8.46
2023-02-22T04:10:32.720Z,8.46
2023-02-22T04:13:35.279Z,8.43
2023-02-22T04:16:37.850Z,8.14
2023-02-22T04:19:39.161Z,8.00
2023-02-22T04:22:42.593Z,7.92
2023-02-22T04:25:43.965Z,7.85
2023-02-22T04:28:46.479Z,7.79
2023-02-22T04:31:47.765Z,8.03
2023-02-22T04:34:50.477Z,8.29
2023-02-22T04:37:53.702Z,8.36
2023-02-22T04:40:55.271Z,8.66
2023-02-22T04:43:56.623Z,8.53
2023-02-22T04:46:57.918Z,8.37
2023-02-22T04:49:59.618Z,8.32
2023-02-22T04:53:01.876Z,8.05
2023-02-22T04:56:03.206Z,8.06
2023-02-22T04:59:05.738Z,8.15
2023-02-22T05:02:08.340Z,8.06
2023-02-22T05:05:10.388Z,8.26
2023-02-22T05:08:12.368Z,8.42
2023-02-22T05:11:13.922Z,8.50
2023-02-22T05:14:16.638Z,8.57
2023-02-22T05:17:18.047Z,8.49
2023-02-22T05:20:27.267Z,8.16
2023-02-22T05:23:30.477Z,8.03
2023-02-22T05:26:31.781Z,7.89
2023-02-22T05:29:33.228Z,7.75
2023-02-22T05:32:34.784Z,7.65
2023-02-22T05:38:58.354Z,7.57
2023-02-22T05:41:59.630Z,7.59
2023-02-22T05:45:00.992Z,7.52
2023-02-22T05:48:02.983Z,7.54
2023-02-22T05:51:06.126Z,7.38
2023-02-22T05:54:09.630Z,7.43
2023-02-22T05:57:10.907Z,7.50
2023-02-22T06:00:17.681Z,7.53
2023-02-22T06:03:19.036Z,7.52
2023-02-22T06:06:22.392Z,7.54
2023-02-22T06:09:25.764Z,7.58
2023-02-22T06:12:27.084Z,7.56
2023-02-22T06:15:30.312Z,7.54
2023-02-22T06:18:31.578Z,7.59
2023-02-22T06:21:34.356Z,7.60
2023-02-22T06:24:38.890Z,7.67
2023-02-22T06:27:41.498Z,7.66
2023-02-22T06:30:43.052Z,7.71
2023-02-22T06:33:44.401Z,7.71
2023-02-22T06:36:48.449Z,7.74
2023-02-22T06:39:50.491Z,7.75
2023-02-22T06:42:54.143Z,7.80
2023-02-22T06:45:56.223Z,7.85
2023-02-22T06:48:58.756Z,7.89
2023-02-22T06:52:01.327Z,7.88
2023-02-22T06:55:03.502Z,7.94
2023-02-22T06:58:05.033Z,8.01
2023-02-22T07:01:07.092Z,8.07
2023-02-22T07:04:08.516Z,8.14
2023-02-22T07:07:11.379Z,8.17
2023-02-22T07:10:19.368Z,8.24
2023-02-22T07:13:21.918Z,8.27
2023-02-22T07:16:24.553Z,8.32
2023-02-22T07:19:25.847Z,8.39
2023-02-22T07:22:28.373Z,8.40
2023-02-22T07:25:30.373Z,8.50
2023-02-22T07:28:33.202Z,8.59
2023-02-22T07:31:36.793Z,8.68
2023-02-22T07:34:38.081Z,8.75
2023-02-22T07:37:41.035Z,8.77
2023-02-22T07:40:44.055Z,8.81
2023-02-22T07:43:45.473Z,8.80
2023-02-22T07:46:48.682Z,8.81
2023-02-22T07:49:49.959Z,8.84
2023-02-22T07:52:54.728Z,8.86
2023-02-22T07:55:56.979Z,8.90
2023-02-22T07:58:59.519Z,8.95
2023-02-22T08:02:00.784Z,9.00
2023-02-22T08:05:03.325Z,9.05
2023-02-22T08:08:05.909Z,9.08
2023-02-22T08:11:09.392Z,9.12
2023-02-22T08:14:10.753Z,9.18
2023-02-22T08:17:12.102Z,9.21
2023-02-22T08:20:13.595Z,9.28
2023-02-22T08:23:17.408Z,9.29
2023-02-22T08:26:20.048Z,9.34
2023-02-22T08:29:24.247Z,9.41
2023-02-22T08:32:25.774Z,9.50
2023-02-22T08:35:28.652Z,9.51
2023-02-22T08:38:31.133Z,9.56
2023-02-22T08:41:34.308Z,9.64
2023-02-22T08:44:37.004Z,9.71
2023-02-22T08:47:38.341Z,9.67
2023-02-22T08:50:42.310Z,9.77
2023-02-22T08:53:43.846Z,9.83
2023-02-22T08:56:47.033Z,9.87
2023-02-22T08:59:48.520Z,9.94
2023-02-22T09:02:50.945Z,9.92
2023-02-22T09:05:52.243Z,9.97
2023-02-22T09:08:53.794Z,10.31
2023-02-22T09:11:55.710Z,10.24
2023-02-22T09:14:58.294Z,10.23
2023-02-22T09:18:00.259Z,10.25
2023-02-22T09:24:24.111Z,10.28
2023-02-22T09:27:27.498Z,10.38
2023-02-22T09:30:33.372Z,10.43
2023-02-22T09:33:34.890Z,10.49
2023-02-22T09:36:40.248Z,10.70
2023-02-22T09:43:15.979Z,10.70
2023-02-22T09:46:33.847Z,10.79
2023-02-22T09:49:40.693Z,10.78
2023-02-22T09:52:53.278Z,10.99
2023-02-22T09:56:00.383Z,11.02
2023-02-22T09:59:06.452Z,11.12
2023-02-22T10:02:25.046Z,11.17
2023-02-22T10:05:32.921Z,11.03
2023-02-22T10:08:35.827Z,11.06
2023-02-22T10:11:57.872Z,11.11
2023-02-22T10:15:38.298Z,11.17
2023-02-22T10:19:14.459Z,11.16
2023-02-22T10:22:37.882Z,11.24
2023-02-22T10:25:41.732Z,11.33
2023-02-22T10:29:01.948Z,11.34
2023-02-22T10:32:05.296Z,11.51
2023-02-22T10:35:17.884Z,11.42
2023-02-22T10:38:23.942Z,11.60
2023-02-22T10:41:28.986Z,11.61
2023-02-22T10:44:30.441Z,11.56
2023-02-22T10:47:33.784Z,11.67
2023-02-22T10:50:40.097Z,11.68
2023-02-22T10:53:41.513Z,11.46
2023-02-22T10:56:47.805Z,11.71
2023-02-22T10:59:51.277Z,11.59
2023-02-22T11:02:55.615Z,11.42
2023-02-22T11:06:22.312Z,11.47
2023-02-22T11:09:23.750Z,11.61
2023-02-22T11:12:31.241Z,11.80
2023-02-22T11:15:34.042Z,11.59
2023-02-22T11:18:36.156Z,11.57
2023-02-22T11:21:40.433Z,11.37
2023-02-22T11:24:49.201Z,11.46
2023-02-22T11:27:52.306Z,11.35
2023-02-22T11:30:56.001Z,11.44
2023-02-22T11:34:00.636Z,11.76
2023-02-22T11:37:29.438Z,11.39
2023-02-22T11:40:30.758Z,11.42
2023-02-22T11:43:33.332Z,11.57
2023-02-22T11:46:36.675Z,11.52
2023-02-22T11:53:30.271Z,11.54
2023-02-22T11:56:38.338Z,11.55
2023-02-22T11:59:48.539Z,11.34
2023-02-22T12:03:10.785Z,11.45
2023-02-22T12:06:26.930Z,11.44
2023-02-22T12:09:38.955Z,11.49
2023-02-22T12:12:50.732Z,11.45
2023-02-22T12:16:06.154Z,11.60
2023-02-22T12:19:15.829Z,11.46
2023-02-22T12:22:25.968Z,11.45
2023-02-22T12:25:30.985Z,11.39
2023-02-22T12:28:39.355Z,11.60
2023-02-22T12:31:45.607Z,11.43
2023-02-22T12:34:54.756Z,11.51
2023-02-22T12:38:05.126Z,11.50
2023-02-22T12:41:14.338Z,11.61
2023-02-22T12:44:23.028Z,11.53
2023-02-22T12:47:34.098Z,11.63
2023-02-22T12:50:37.000Z,11.71
2023-02-22T12:53:45.752Z,11.63
2023-02-22T12:56:52.876Z,11.65
2023-02-22T12:59:59.052Z,11.63
2023-02-22T13:03:05.559Z,11.46
2023-02-22T13:06:33.011Z,11.61
2023-02-22T13:09:59.782Z,11.48
2023-02-22T13:13:14.416Z,11.40
2023-02-22T13:16:28.849Z,11.49
2023-02-22T13:19:39.726Z,11.50
2023-02-22T13:22:48.605Z,11.58
2023-02-22T13:25:57.361Z,11.50
2023-02-22T13:29:06.407Z,11.62
2023-02-22T13:32:28.040Z,11.55
2023-02-22T13:35:41.715Z,11.49
2023-02-22T13:39:37.879Z,11.74
2023-02-22T13:43:10.177Z,11.68
2023-02-22T13:46:34.064Z,11.67
2023-02-22T13:53:46.715Z,11.71
2023-02-22T13:56:51.720Z,11.59
2023-02-22T14:00:20.349Z,11.55
2023-02-22T14:03:41.499Z,11.51
2023-02-22T14:06:43.171Z,11.41
2023-02-22T14:09:50.006Z,11.52
2023-02-22T14:12:51.400Z,11.50
2023-02-22T14:16:19.438Z,11.47
2023-02-22T14:19:24.290Z,11.52
2023-02-22T14:22:29.164Z,11.45
2023-02-22T14:25:35.691Z,11.46
2023-02-22T14:28:50.963Z,11.45
2023-02-22T14:32:01.970Z,11.49
2023-02-22T14:35:06.412Z,11.40
2023-02-22T14:38:17.690Z,11.53
2023-02-22T14:41:22.119Z,11.61
2023-02-22T14:44:27.483Z,11.44
2023-02-22T14:47:35.874Z,11.40
2023-02-22T14:50:48.020Z,11.42
2023-02-22T14:57:24.896Z,11.28
2023-02-22T15:00:32.048Z,11.46
2023-02-22T15:03:36.488Z,11.27
2023-02-22T15:06:37.986Z,11.32
2023-02-22T15:09:39.358Z,11.29
2023-02-22T15:12:41.861Z,11.28
2023-02-22T15:15:44.828Z,11.28
2023-02-22T15:18:50.996Z,11.30
2023-02-22T15:21:53.972Z,11.19
2023-02-22T15:24:58.824Z,11.08
2023-02-22T15:28:04.015Z,11.28
2023-02-22T15:31:24.405Z,11.42
2023-02-22T15:34:30.341Z,11.13
2023-02-22T15:37:31.826Z,10.98
2023-02-22T15:40:35.060Z,11.01
2023-02-22T15:43:37.757Z,10.98
2023-02-22T15:46:40.848Z,10.94
2023-02-22T15:49:44.578Z,11.00
2023-02-22T15:52:52.826Z,11.05
2023-02-22T15:55:57.776Z,11.10
2023-02-22T15:59:04.328Z,10.97
2023-02-22T16:02:05.721Z,10.69
2023-02-22T16:05:11.543Z,10.69
2023-02-22T16:08:17.211Z,10.54
2023-02-22T16:11:30.296Z,10.58
2023-02-22T16:14:43.212Z,10.54
2023-02-22T16:18:01.087Z,10.66
2023-02-22T16:21:10.888Z,10.61
2023-02-22T16:24:26.909Z,10.44
2023-02-22T16:27:28.204Z,10.30
2023-02-22T16:30:31.940Z,10.16
2023-02-22T16:33:33.270Z,10.18
2023-02-22T16:36:41.455Z,10.16
2023-02-22T16:39:45.397Z,10.07
2023-02-22T16:42:46.694Z,10.08
2023-02-22T16:45:48.175Z,9.92
2023-02-22T16:55:31.208Z,9.95
2023-02-22T16:58:36.890Z,9.88
2023-02-22T17:01:39.574Z,9.95
2023-02-22T17:04:43.136Z,9.98
2023-02-22T17:07:45.082Z,9.91
2023-02-22T17:10:46.545Z,9.81
2023-02-22T17:13:52.291Z,9.70
2023-02-22T17:16:53.578Z,9.71
2023-02-22T17:19:55.153Z,9.68
2023-02-22T17:22:58.918Z,9.58
2023-02-22T17:26:02.737Z,9.60
2023-02-22T17:29:04.030Z,9.57
2023-02-22T17:32:06.656Z,9.60
2023-02-22T17:35:08.133Z,9.52
2023-02-22T17:38:11.302Z,9.61
2023-02-22T17:41:12.597Z,9.70
2023-02-22T17:44:13.913Z,9.55
2023-02-22T17:47:16.478Z,9.49
2023-02-22T17:50:18.808Z,9.45
2023-02-22T17:53:23.757Z,9.46
2023-02-22T17:56:26.345Z,9.38
2023-02-22T17:59:28.247Z,9.48
2023-02-22T18:02:30.840Z,9.46
2023-02-22T18:05:33.960Z,9.36
2023-02-22T18:08:39.524Z,9.23
2023-02-22T18:11:42.089Z,9.36
2023-02-22T18:14:44.618Z,9.21
2023-02-22T18:17:46.802Z,9.23
2023-02-22T18:20:51.905Z,9.08
2023-02-22T18:23:54.139Z,9.15
2023-02-22T18:26:57.027Z,9.11
2023-02-22T18:29:58.462Z,9.02
2023-02-22T18:33:00.999Z,9.05
2023-02-22T18:36:02.298Z,9.03
2023-02-22T18:39:12.055Z,9.01
2023-02-22T18:42:14.609Z,8.96
2023-02-22T18:52:00.468Z,8.94
2023-02-22T18:55:02.441Z,8.95
2023-02-22T18:58:05.531Z,8.91
2023-02-22T19:01:06.938Z,8.95
2023-02-22T19:04:09.341Z,8.86
2023-02-22T19:07:16.866Z,8.84
2023-02-22T19:10:21.586Z,8.76
2023-02-22T19:13:23.040Z,8.79
2023-02-22T19:16:26.701Z,8.72
2023-02-22T19:19:30.702Z,8.71
2023-02-22T19:22:33.535Z,8.65
2023-02-22T19:25:39.592Z,8.60
2023-02-22T19:28:40.920Z,8.70
2023-02-22T19:31:42.944Z,8.58
2023-02-22T19:34:44.580Z,8.54
2023-02-22T19:37:48.563Z,8.57
2023-02-22T19:40:50.510Z,8.52
2023-02-22T19:43:54.221Z,8.48
2023-02-22T19:46:55.505Z,8.51
2023-02-22T19:49:59.195Z,8.41
2023-02-22T19:53:02.896Z,8.46
2023-02-22T19:56:08.798Z,8.42
2023-02-22T19:59:14.110Z,8.43
2023-02-22T20:02:15.409Z,8.40
2023-02-22T20:05:18.137Z,8.39
2023-02-22T20:08:20.336Z,8.41
2023-02-22T20:11:23.278Z,8.39
2023-02-22T20:14:28.871Z,8.28
2023-02-22T20:17:31.434Z,8.32
2023-02-22T20:20:32.817Z,8.32
2023-02-22T20:23:35.412Z,8.32
2023-02-22T20:26:38.899Z,8.21
2023-02-22T20:29:41.801Z,8.19
2023-02-22T20:32:43.514Z,8.27
2023-02-22T20:35:47.126Z,8.34
2023-02-22T20:38:52.514Z,8.35
2023-02-22T20:41:54.519Z,8.25
2023-02-22T20:45:00.960Z,8.45
2023-02-22T20:48:02.274Z,8.18
2023-02-22T20:51:09.407Z,8.29
2023-02-22T20:54:11.591Z,8.12
2023-02-22T20:57:14.761Z,8.14
2023-02-22T21:00:17.278Z,8.17
2023-02-22T21:03:19.804Z,8.34
2023-02-22T21:06:22.115Z,8.31
2023-02-22T21:12:48.287Z,8.53
2023-02-22T21:15:51.861Z,8.39
2023-02-22T21:18:55.695Z,8.45
2023-02-22T21:21:58.583Z,8.37
2023-02-22T21:25:01.471Z,8.31
2023-02-22T21:28:04.125Z,8.24
2023-02-22T21:31:07.758Z,8.24
2023-02-22T21:34:11.642Z,8.34
2023-02-22T21:37:18.590Z,8.50
2023-02-22T21:40:21.581Z,8.48
2023-02-22T21:43:25.650Z,8.33
2023-02-22T21:53:13.150Z,8.30
2023-02-22T21:56:19.400Z,8.42
2023-02-22T21:59:22.937Z,8.27
2023-02-22T22:02:25.544Z,8.37
2023-02-22T22:05:33.006Z,8.36
2023-02-22T22:08:40.464Z,8.16
2023-02-22T22:11:41.863Z,8.14
2023-02-22T22:14:45.310Z,7.92
2023-02-22T22:17:46.873Z,7.86
2023-02-22T22:20:52.336Z,7.91
2023-02-22T22:23:57.231Z,7.79
2023-02-22T22:27:02.838Z,7.68
2023-02-22T22:30:08.393Z,7.68
2023-02-22T22:33:10.517Z,7.63
2023-02-22T22:36:14.836Z,7.60
2023-02-22T22:39:20.102Z,7.62
2023-02-22T22:45:47.341Z,7.77
2023-02-22T22:48:49.886Z,7.92
2023-02-22T22:51:53.142Z,7.82
2023-02-22T22:54:54.411Z,7.67
2023-02-22T22:57:56.972Z,7.57
2023-02-22T23:01:01.682Z,7.58
2023-02-22T23:04:05.712Z,7.55
2023-02-22T23:07:08.330Z,7.50
2023-02-22T23:10:13.163Z,7.38
2023-02-22T23:13:15.095Z,7.45
2023-02-22T23:16:20.296Z,7.30
2023-02-22T23:22:46.540Z,7.60
2023-02-22T23:25:51.290Z,7.54
2023-02-22T23:28:56.495Z,7.34
2023-02-22T23:31:58.510Z,7.30
2023-02-22T23:35:02.262Z,7.19
2023-02-22T23:38:09.477Z,7.10
2023-02-22T23:41:17.789Z,6.98
2023-02-22T23:44:20.798Z,6.99
2023-02-22T23:47:24.104Z,7.10
2023-02-22T23:50:29.482Z,7.15
2023-02-22T23:53:31.810Z,7.12
2023-02-22T23:56:35.905Z,7.09
2023-02-22T23:59:40.826Z,7.08
